Time;durP1;ratioP1;P1;durP2;ratioP2;P2;SDS_P1;SDS_P2;PMS_P1;PMS_P2;Temp;Humidity;BMP_temperature;BMP_pressure;BME280_temperature;BME280_humidity;BME280_pressure;Samples;Min_cycle;Max_cycle;Signal;HPM_P1;HPM_P2
2023/01/08 00:01:54;;;;;;;2.78;2.00;;;9.90;99.90;;;;;;5079348;28;20078;-66
2023/01/08 00:04:20;;;;;;;3.53;1.95;;;9.80;99.90;;;;;;5077709;28;20028;-66
2023/01/08 00:06:46;;;;;;;3.10;1.88;;;9.90;99.90;;;;;;5079647;28;20040;-65
2023/01/08 00:09:12;;;;;;;3.13;1.90;;;9.90;99.90;;;;;;5081321;28;20119;-65
2023/01/08 00:11:37;;;;;;;3.45;2.15;;;9.90;99.90;;;;;;5080313;28;20094;-66
2023/01/08 00:14:03;;;;;;;2.78;2.00;;;9.90;99.90;;;;;;5064575;28;20036;-65
2023/01/08 00:16:30;;;;;;;2.60;1.73;;;9.90;99.90;;;;;;5079243;28;20036;-66
2023/01/08 00:18:55;;;;;;;3.42;1.98;;;9.90;99.90;;;;;;5078900;28;20040;-66
2023/01/08 00:21:22;;;;;;;2.08;1.77;;;9.90;99.90;;;;;;5060626;28;20150;-67
2023/01/08 00:23:48;;;;;;;3.10;2.08;;;9.90;99.90;;;;;;5063917;28;20434;-66
2023/01/08 00:26:14;;;;;;;3.40;2.22;;;9.90;99.90;;;;;;5063130;28;20071;-66
2023/01/08 00:28:40;;;;;;;2.72;2.15;;;9.90;99.90;;;;;;5077175;28;20032;-65
2023/01/08 00:31:08;;;;;;;4.18;2.50;;;9.90;99.90;;;;;;5082065;28;20085;-65
2023/01/08 00:33:34;;;;;;;3.15;2.22;;;9.90;99.90;;;;;;5081728;28;20638;-66
2023/01/08 00:36:05;;;;;;;5.70;2.65;;;9.80;99.90;;;;;;5077482;28;20469;-66
2023/01/08 00:38:31;;;;;;;3.42;2.42;;;9.80;99.90;;;;;;5080896;28;20338;-65
2023/01/08 00:40:56;;;;;;;3.45;2.45;;;9.70;99.90;;;;;;5079731;28;20243;-66
2023/01/08 00:43:22;;;;;;;3.33;2.05;;;9.70;99.90;;;;;;5078858;28;20487;-66
2023/01/08 00:45:52;;;;;;;4.03;2.50;;;9.70;99.90;;;;;;5061898;28;20135;-66
2023/01/08 00:48:19;;;;;;;3.50;2.35;;;9.70;99.90;;;;;;5082454;28;20321;-66
2023/01/08 00:50:44;;;;;;;2.85;2.40;;;9.70;99.90;;;;;;5064646;28;20049;-66
2023/01/08 00:53:11;;;;;;;3.97;2.40;;;9.70;99.90;;;;;;5080952;28;20032;-66
2023/01/08 00:55:36;;;;;;;3.80;2.60;;;9.70;99.90;;;;;;5080803;28;20492;-65
2023/01/08 00:58:02;;;;;;;3.67;2.22;;;9.60;99.90;;;;;;5080667;28;20036;-66
2023/01/08 01:00:28;;;;;;;3.38;2.33;;;9.70;99.90;;;;;;5085918;28;20075;-65
2023/01/08 01:02:53;;;;;;;2.50;2.10;;;9.70;99.90;;;;;;5065346;28;20044;-66
2023/01/08 01:05:19;;;;;;;2.97;2.17;;;9.70;99.90;;;;;;5084807;28;20085;-66
2023/01/08 01:07:45;;;;;;;2.72;1.83;;;9.70;99.90;;;;;;5084211;28;20042;-65
2023/01/08 01:10:13;;;;;;;4.15;2.17;;;9.70;99.90;;;;;;5085479;28;20081;-65
2023/01/08 01:12:40;;;;;;;2.15;1.80;;;9.60;99.90;;;;;;5085890;28;20048;-67
2023/01/08 01:15:07;;;;;;;3.50;2.20;;;9.60;99.90;;;;;;5064913;28;20044;-65
2023/01/08 01:17:34;;;;;;;4.40;2.00;;;9.50;99.90;;;;;;5060780;28;20047;-65
2023/01/08 01:20:00;;;;;;;3.00;2.00;;;9.50;99.90;;;;;;5069823;28;20084;-66
2023/01/08 01:22:25;;;;;;;4.05;1.85;;;9.60;99.90;;;;;;5080791;28;20119;-65
2023/01/08 01:24:51;;;;;;;3.80;2.00;;;9.60;99.90;;;;;;5060282;28;20152;-65
2023/01/08 01:27:17;;;;;;;4.13;1.50;;;9.60;99.90;;;;;;5066551;28;20059;-66
2023/01/08 01:29:43;;;;;;;3.75;1.27;;;9.60;99.90;;;;;;5065579;28;20415;-66
2023/01/08 01:32:08;;;;;;;2.90;1.10;;;9.50;99.90;;;;;;5060594;28;20105;-66
2023/01/08 01:34:34;;;;;;;3.53;0.85;;;9.50;99.90;;;;;;5086420;28;20186;-65
2023/01/08 01:37:00;;;;;;;6.05;1.00;;;9.40;99.90;;;;;;5085520;28;20084;-65
2023/01/08 01:39:26;;;;;;;5.00;1.00;;;9.40;99.90;;;;;;5083284;28;20039;-65
2023/01/08 01:41:52;;;;;;;4.88;1.17;;;9.30;99.90;;;;;;5081792;28;20087;-65
2023/01/08 01:44:35;;;;;;;3.33;0.70;;;9.20;99.90;;;;;;5080852;28;20453;-65
2023/01/08 01:47:11;;;;;;;6.90;0.82;;;9.20;99.90;;;;;;5080763;28;20043;-65
2023/01/08 01:49:37;;;;;;;4.28;0.80;;;9.10;99.90;;;;;;5062399;28;20102;-65
2023/01/08 01:52:06;;;;;;;5.80;0.95;;;9.10;99.90;;;;;;5085449;28;20036;-65
2023/01/08 01:54:34;;;;;;;5.88;0.90;;;9.00;99.90;;;;;;5078799;28;20056;-68
2023/01/08 01:57:01;;;;;;;4.45;0.95;;;9.00;99.90;;;;;;5080575;28;20169;-65
2023/01/08 01:59:27;;;;;;;9.90;1.65;;;8.90;99.90;;;;;;5077590;28;20036;-66
2023/01/08 02:01:55;;;;;;;7.05;1.02;;;8.80;99.90;;;;;;5081471;28;20040;-65
2023/01/08 02:04:20;;;;;;;9.73;1.42;;;8.80;99.90;;;;;;5078129;28;20078;-66
2023/01/08 02:07:16;;;;;;;6.75;1.10;;;8.70;99.90;;;;;;5077154;28;20083;-67
2023/01/08 02:10:01;;;;;;;;;;;8.70;99.90;;;;;;5059892;28;20044;-65
2023/01/08 02:12:47;;;;;;;7.00;1.27;;;8.60;99.90;;;;;;5076095;28;19927;-65
2023/01/08 02:15:22;;;;;;;10.23;1.38;;;8.60;99.90;;;;;;5076942;28;20116;-65
2023/01/08 02:17:57;;;;;;;12.50;1.70;;;8.60;99.90;;;;;;5083618;28;20040;-66
2023/01/08 02:20:30;;;;;;;;;;;8.60;99.90;;;;;;5079631;28;20431;-65
2023/01/08 02:23:30;;;;;;;7.28;0.98;;;8.50;99.90;;;;;;5077744;28;19916;-66
2023/01/08 02:26:12;;;;;;;8.70;2.00;;;8.50;99.90;;;;;;5052223;28;20459;-65
2023/01/08 02:28:59;;;;;;;7.68;1.05;;;8.60;99.90;;;;;;5080341;28;20069;-65
2023/01/08 02:31:27;;;;;;;9.23;1.23;;;8.60;99.90;;;;;;5075696;28;20074;-65
2023/01/08 02:33:53;;;;;;;7.82;1.38;;;8.50;99.90;;;;;;5083624;28;20064;-65
2023/01/08 02:36:29;;;;;;;7.95;1.58;;;8.50;99.90;;;;;;5078681;28;20071;-65
2023/01/08 02:39:19;;;;;;;8.48;1.45;;;8.50;99.90;;;;;;5084134;28;20114;-65
2023/01/08 02:42:00;;;;;;;10.55;1.60;;;8.50;99.90;;;;;;5079568;28;20043;-66
2023/01/08 02:44:43;;;;;;;14.23;1.58;;;8.40;99.90;;;;;;5077423;28;20050;-65
2023/01/08 02:47:14;;;;;;;5.95;1.05;;;8.40;99.90;;;;;;5077137;28;20123;-65
2023/01/08 02:49:41;;;;;;;8.15;1.23;;;8.40;99.90;;;;;;5080227;28;20040;-66
2023/01/08 02:52:09;;;;;;;7.45;1.40;;;8.40;99.90;;;;;;5087958;28;20573;-65
2023/01/08 02:54:36;;;;;;;6.80;1.20;;;8.30;99.90;;;;;;5030716;28;1112261;-65
2023/01/08 02:57:09;;;;;;;9.70;1.40;;;8.30;99.90;;;;;;5082416;28;20511;-65
2023/01/08 02:59:37;;;;;;;12.77;1.70;;;8.30;99.90;;;;;;5079169;28;20479;-65
2023/01/08 03:02:04;;;;;;;11.57;1.55;;;8.30;99.90;;;;;;5077556;28;20036;-65
2023/01/08 03:04:35;;;;;;;6.63;1.38;;;8.30;99.90;;;;;;5082384;28;20136;-65
2023/01/08 03:07:01;;;;;;;6.50;1.05;;;8.20;99.90;;;;;;5080174;28;20040;-66
2023/01/08 03:09:27;;;;;;;9.88;1.13;;;8.20;99.90;;;;;;5059940;28;20036;-65
2023/01/08 03:12:04;;;;;;;9.25;1.30;;;8.20;99.90;;;;;;5077628;28;20085;-65
2023/01/08 03:14:55;;;;;;;7.68;1.48;;;8.20;99.90;;;;;;5084092;28;20028;-66
2023/01/08 03:17:31;;;;;;;3.80;1.02;;;8.20;99.90;;;;;;5065275;28;20115;-65
2023/01/08 03:20:14;;;;;;;7.07;1.50;;;8.20;99.90;;;;;;5082843;28;20044;-65
2023/01/08 03:22:42;;;;;;;7.32;1.52;;;8.20;99.90;;;;;;5082973;28;20035;-65
2023/01/08 03:25:09;;;;;;;9.02;1.75;;;8.20;99.90;;;;;;5084407;28;20062;-66
2023/01/08 03:27:41;;;;;;;7.88;1.60;;;8.10;99.90;;;;;;5065092;28;20047;-65
2023/01/08 03:30:09;;;;;;;4.28;1.15;;;8.10;99.90;;;;;;5079757;28;20032;-65
2023/01/08 03:32:38;;;;;;;5.20;1.50;;;8.10;99.90;;;;;;5079445;28;20048;-65
2023/01/08 03:35:07;;;;;;;7.10;1.65;;;8.20;99.90;;;;;;5084994;28;20126;-66
2023/01/08 03:37:35;;;;;;;4.95;1.50;;;8.20;99.90;;;;;;5077001;28;20063;-65
2023/01/08 03:40:19;;;;;;;6.50;2.03;;;8.20;99.90;;;;;;5078823;28;20044;-65
2023/01/08 03:42:45;;;;;;;6.35;1.65;;;8.20;99.90;;;;;;5082319;28;20058;-65
2023/01/08 03:45:11;;;;;;;7.10;2.13;;;8.20;99.90;;;;;;5083549;28;20036;-65
2023/01/08 03:47:38;;;;;;;4.72;2.50;;;8.30;99.90;;;;;;5073634;28;20702;-65
2023/01/08 03:50:08;;;;;;;4.15;2.42;;;8.30;99.90;;;;;;5082517;28;20491;-66
2023/01/08 03:52:34;;;;;;;5.63;2.33;;;8.40;99.90;;;;;;5080763;28;20335;-65
2023/01/08 03:55:00;;;;;;;8.45;2.72;;;8.30;99.90;;;;;;5062382;28;20131;-66
2023/01/08 03:57:25;;;;;;;8.32;2.80;;;8.40;99.90;;;;;;5079953;28;20077;-66
2023/01/08 03:59:51;;;;;;;3.28;2.00;;;8.40;99.90;;;;;;5058737;28;20107;-65
2023/01/08 04:02:17;;;;;;;5.20;2.92;;;8.50;99.90;;;;;;5078492;28;20048;-66
2023/01/08 04:04:43;;;;;;;7.95;3.00;;;8.50;99.90;;;;;;5064373;28;20394;-65
2023/01/08 04:07:12;;;;;;;5.63;2.42;;;8.50;99.90;;;;;;5057260;28;20036;-65
2023/01/08 04:09:38;;;;;;;6.47;2.42;;;8.60;99.90;;;;;;5080756;28;20028;-65
2023/01/08 04:12:04;;;;;;;4.10;1.98;;;8.60;99.90;;;;;;5082476;28;20177;-65
2023/01/08 04:14:30;;;;;;;4.63;2.22;;;8.70;99.90;;;;;;5081330;28;20024;-67
2023/01/08 04:16:55;;;;;;;5.53;2.50;;;8.80;99.90;;;;;;5075391;28;20165;-66
2023/01/08 04:19:21;;;;;;;5.53;2.33;;;8.80;99.90;;;;;;5078214;28;20103;-65
2023/01/08 04:21:50;;;;;;;3.67;1.52;;;8.80;99.90;;;;;;5083215;28;20034;-66
2023/01/08 04:24:16;;;;;;;2.90;1.48;;;8.80;99.90;;;;;;5081349;28;20374;-66
2023/01/08 04:26:42;;;;;;;3.80;1.70;;;8.80;99.90;;;;;;5077188;28;20045;-66
2023/01/08 04:29:07;;;;;;;3.92;1.67;;;8.80;99.90;;;;;;5081091;28;20044;-66
2023/01/08 04:31:33;;;;;;;5.43;1.60;;;8.90;99.90;;;;;;5082831;28;20053;-65
2023/01/08 04:33:59;;;;;;;4.82;1.63;;;8.90;99.90;;;;;;5080544;28;20043;-65
2023/01/08 04:36:24;;;;;;;5.22;1.40;;;8.90;99.90;;;;;;5081602;28;20533;-65
2023/01/08 04:38:50;;;;;;;4.55;1.50;;;8.90;99.90;;;;;;5059986;28;20052;-66
2023/01/08 04:41:17;;;;;;;2.78;1.50;;;8.90;99.90;;;;;;5079117;28;20040;-66
2023/01/08 04:43:43;;;;;;;4.28;1.15;;;8.90;99.90;;;;;;5077666;28;20040;-66
2023/01/08 04:46:09;;;;;;;4.55;1.38;;;8.80;99.90;;;;;;5078571;28;20432;-65
2023/01/08 04:48:35;;;;;;;3.00;1.00;;;8.80;99.90;;;;;;5078665;28;20404;-65
2023/01/08 04:51:02;;;;;;;4.28;1.30;;;8.80;99.90;;;;;;5075501;28;20052;-65
2023/01/08 04:53:29;;;;;;;3.08;1.00;;;8.70;99.90;;;;;;5055289;28;20035;-65
2023/01/08 04:55:55;;;;;;;3.67;1.20;;;8.70;99.90;;;;;;5075252;28;20130;-65
2023/01/08 04:58:21;;;;;;;1.35;0.90;;;8.70;99.90;;;;;;5076862;28;20048;-65
2023/01/08 05:00:46;;;;;;;3.63;1.13;;;8.70;99.90;;;;;;5078396;28;20032;-65
2023/01/08 05:03:13;;;;;;;2.85;1.00;;;8.80;99.90;;;;;;5075589;28;20089;-65
2023/01/08 05:05:39;;;;;;;3.92;1.40;;;8.70;99.90;;;;;;5076087;28;20507;-65
2023/01/08 05:08:05;;;;;;;4.05;1.02;;;8.70;99.90;;;;;;5060949;28;20060;-65
2023/01/08 05:10:30;;;;;;;2.95;1.20;;;8.70;99.90;;;;;;5077889;28;20032;-65
2023/01/08 05:13:00;;;;;;;5.25;1.10;;;8.60;99.90;;;;;;5078166;28;20043;-65
2023/01/08 05:15:26;;;;;;;3.85;1.02;;;8.60;99.90;;;;;;5075043;28;20039;-65
2023/01/08 05:18:04;;;;;;;5.97;1.67;;;8.60;99.90;;;;;;5082328;28;20119;-66
2023/01/08 05:20:31;;;;;;;2.97;1.30;;;8.60;99.90;;;;;;5077298;28;20048;-65
2023/01/08 05:22:57;;;;;;;2.55;1.10;;;8.60;99.90;;;;;;5075785;28;20052;-64
2023/01/08 05:25:23;;;;;;;3.30;1.23;;;8.60;99.90;;;;;;5076776;28;20050;-65
2023/01/08 05:27:49;;;;;;;3.67;1.20;;;8.50;99.90;;;;;;5065080;28;20069;-65
2023/01/08 05:30:15;;;;;;;5.95;1.05;;;8.50;99.90;;;;;;5076862;28;20391;-65
2023/01/08 05:32:41;;;;;;;3.80;1.25;;;8.50;99.90;;;;;;5087757;28;20516;-65
2023/01/08 05:35:07;;;;;;;4.38;1.33;;;8.50;99.90;;;;;;5081617;28;20060;-65
2023/01/08 05:37:34;;;;;;;1.67;1.02;;;8.50;99.90;;;;;;5085499;28;20048;-66
2023/01/08 05:40:00;;;;;;;5.63;1.50;;;8.50;99.90;;;;;;5063896;28;20112;-65
2023/01/08 05:42:25;;;;;;;4.13;1.45;;;8.40;99.90;;;;;;5081314;28;20036;-65
2023/01/08 05:44:51;;;;;;;4.97;1.80;;;8.40;99.90;;;;;;5081790;28;20039;-65
2023/01/08 05:47:17;;;;;;;4.43;1.45;;;8.40;99.90;;;;;;5063995;28;20053;-65
2023/01/08 05:49:42;;;;;;;4.05;1.52;;;8.40;99.90;;;;;;5063677;28;20054;-65
2023/01/08 05:52:08;;;;;;;8.32;2.50;;;8.40;99.90;;;;;;5074704;28;20041;-66
2023/01/08 05:54:34;;;;;;;4.20;1.98;;;8.40;99.90;;;;;;5084456;28;20042;-65
2023/01/08 05:56:59;;;;;;;3.58;1.90;;;8.40;99.90;;;;;;5083143;28;20070;-65
2023/01/08 05:59:25;;;;;;;4.88;2.08;;;8.40;99.90;;;;;;5066226;28;20178;-65
2023/01/08 06:01:51;;;;;;;6.38;2.08;;;8.30;99.90;;;;;;5062719;28;20035;-67
2023/01/08 06:04:16;;;;;;;2.80;1.77;;;8.30;99.90;;;;;;5063267;28;20135;-65
2023/01/08 06:06:42;;;;;;;6.53;2.35;;;8.30;99.90;;;;;;5081820;28;20156;-65
2023/01/08 06:09:08;;;;;;;7.72;2.30;;;8.30;99.90;;;;;;5063397;28;20076;-65
2023/01/08 06:11:34;;;;;;;5.65;2.03;;;8.30;99.90;;;;;;5083427;28;20118;-65
2023/01/08 06:13:59;;;;;;;3.58;1.90;;;8.30;99.90;;;;;;5079789;28;20459;-65
2023/01/08 06:16:25;;;;;;;4.60;1.98;;;8.30;99.90;;;;;;5062709;28;20056;-65
2023/01/08 06:18:51;;;;;;;4.38;2.03;;;8.30;99.90;;;;;;5080406;28;20429;-65
2023/01/08 06:21:16;;;;;;;7.85;1.85;;;8.30;99.90;;;;;;5081807;28;20390;-66
2023/01/08 06:23:42;;;;;;;6.28;1.42;;;8.30;99.90;;;;;;5060417;28;20052;-65
2023/01/08 06:26:08;;;;;;;3.80;1.27;;;8.30;99.90;;;;;;5081813;28;20090;-65
2023/01/08 06:28:34;;;;;;;5.15;1.77;;;8.30;99.90;;;;;;5081679;28;20692;-66
2023/01/08 06:31:01;;;;;;;5.15;1.70;;;8.30;99.90;;;;;;5066283;28;20072;-65
2023/01/08 06:33:27;;;;;;;5.70;1.77;;;8.30;99.90;;;;;;5077766;28;20035;-65
2023/01/08 06:35:53;;;;;;;4.82;1.10;;;8.20;99.90;;;;;;5082982;28;20369;-65
2023/01/08 06:38:19;;;;;;;5.80;1.67;;;8.20;99.90;;;;;;5083954;28;20092;-65
2023/01/08 06:40:46;;;;;;;3.88;1.25;;;8.20;99.90;;;;;;5083479;28;20040;-65
2023/01/08 06:43:12;;;;;;;6.53;1.20;;;8.20;99.90;;;;;;5086020;28;20390;-65
2023/01/08 06:45:38;;;;;;;7.50;1.45;;;8.10;99.90;;;;;;5088136;28;20625;-65
2023/01/08 06:48:05;;;;;;;5.07;1.55;;;8.10;99.90;;;;;;5069329;28;20051;-65
2023/01/08 06:50:32;;;;;;;5.72;1.77;;;8.10;99.90;;;;;;5065950;28;20039;-65
2023/01/08 06:52:58;;;;;;;6.13;1.10;;;8.10;99.90;;;;;;5086672;28;20161;-66
2023/01/08 06:55:25;;;;;;;5.32;0.95;;;8.10;99.90;;;;;;5083509;28;20063;-66
2023/01/08 06:57:55;;;;;;;5.88;1.52;;;8.10;99.90;;;;;;5082804;28;20131;-66
2023/01/08 07:00:22;;;;;;;4.22;1.13;;;8.10;99.90;;;;;;5080785;28;20545;-65
2023/01/08 07:02:49;;;;;;;5.03;1.10;;;8.10;99.90;;;;;;5065818;28;20127;-66
2023/01/08 07:05:15;;;;;;;5.25;1.52;;;8.10;99.90;;;;;;5065920;28;20032;-65
2023/01/08 07:07:41;;;;;;;6.60;1.30;;;8.00;99.90;;;;;;5082350;28;20439;-66
2023/01/08 07:10:07;;;;;;;7.10;1.20;;;8.00;99.90;;;;;;5065353;28;20098;-65
2023/01/08 07:12:33;;;;;;;7.30;1.20;;;7.90;99.90;;;;;;5083644;28;20036;-66
2023/01/08 07:14:59;;;;;;;5.93;0.88;;;7.90;99.90;;;;;;5080965;28;20077;-66
2023/01/08 07:17:24;;;;;;;9.43;1.80;;;7.80;99.90;;;;;;5083079;28;20113;-66
2023/01/08 07:19:50;;;;;;;8.73;1.08;;;7.80;99.90;;;;;;5085525;28;20060;-66
2023/01/08 07:22:16;;;;;;;7.75;1.38;;;7.80;99.90;;;;;;5066114;28;20036;-66
2023/01/08 07:24:41;;;;;;;5.68;1.00;;;7.80;99.90;;;;;;5082390;28;20036;-66
2023/01/08 07:27:07;;;;;;;7.63;1.20;;;7.80;99.90;;;;;;5082608;28;20515;-66
2023/01/08 07:29:33;;;;;;;7.90;1.38;;;7.80;99.90;;;;;;5064145;28;20128;-66
2023/01/08 07:31:59;;;;;;;4.40;0.90;;;7.90;99.90;;;;;;5079664;28;20036;-66
2023/01/08 07:34:24;;;;;;;6.28;1.23;;;7.90;99.90;;;;;;5063021;28;20119;-66
2023/01/08 07:36:50;;;;;;;5.25;1.25;;;7.90;99.90;;;;;;5083978;28;20027;-66
2023/01/08 07:39:16;;;;;;;6.80;1.58;;;7.90;99.90;;;;;;5078094;28;20094;-66
2023/01/08 07:41:43;;;;;;;8.23;1.42;;;7.90;99.90;;;;;;5083996;28;20040;-65
2023/01/08 07:44:09;;;;;;;7.35;1.33;;;8.00;99.90;;;;;;5064071;28;20051;-65
2023/01/08 07:46:35;;;;;;;4.10;1.00;;;7.90;99.90;;;;;;5066608;28;20455;-66
2023/01/08 07:49:01;;;;;;;5.88;1.63;;;7.90;99.90;;;;;;5081980;28;20051;-65
2023/01/08 07:51:27;;;;;;;4.20;1.20;;;7.80;99.90;;;;;;5079785;28;20042;-66
2023/01/08 07:53:55;;;;;;;5.47;1.25;;;7.80;99.90;;;;;;5081135;28;20051;-66
2023/01/08 07:56:21;;;;;;;9.40;1.80;;;7.70;99.90;;;;;;5067344;28;20112;-65
2023/01/08 07:58:46;;;;;;;6.30;1.50;;;7.70;99.90;;;;;;5049729;28;20101;-65
2023/01/08 08:01:13;;;;;;;7.57;2.00;;;7.60;99.90;;;;;;5078547;28;20047;-66
2023/01/08 08:03:40;;;;;;;7.30;1.58;;;7.60;99.90;;;;;;5080732;28;20123;-66
2023/01/08 08:06:07;;;;;;;6.18;1.60;;;7.50;99.90;;;;;;5063518;28;20048;-65
2023/01/08 08:08:33;;;;;;;8.68;1.67;;;7.50;99.90;;;;;;5082909;28;20070;-66
2023/01/08 08:10:59;;;;;;;7.25;1.67;;;7.50;99.90;;;;;;5062904;28;20043;-66
2023/01/08 08:13:25;;;;;;;5.55;1.50;;;7.40;99.90;;;;;;5074306;28;20587;-67
2023/01/08 08:15:50;;;;;;;9.15;1.73;;;7.40;99.90;;;;;;5080475;28;20028;-66
2023/01/08 08:18:16;;;;;;;5.88;1.42;;;7.40;99.90;;;;;;5084183;28;20040;-66
2023/01/08 08:20:42;;;;;;;5.72;1.10;;;7.30;99.90;;;;;;5075876;28;20067;-66
2023/01/08 08:23:11;;;;;;;5.07;2.00;;;7.30;99.90;;;;;;5081941;28;20043;-66
2023/01/08 08:25:37;;;;;;;9.88;1.60;;;7.30;99.90;;;;;;5061834;28;20085;-66
2023/01/08 08:28:04;;;;;;;7.75;1.40;;;7.30;99.90;;;;;;5081297;28;20074;-65
2023/01/08 08:30:31;;;;;;;4.28;1.00;;;7.20;99.90;;;;;;5083407;28;20028;-66
2023/01/08 08:33:02;;;;;;;6.63;1.10;;;7.30;99.90;;;;;;5078519;28;20090;-66
2023/01/08 08:35:29;;;;;;;4.05;1.15;;;7.30;99.90;;;;;;5079627;28;20461;-66
2023/01/08 08:37:55;;;;;;;6.25;1.42;;;7.30;99.90;;;;;;5064257;28;20045;-65
2023/01/08 08:40:21;;;;;;;7.80;1.33;;;7.30;99.90;;;;;;5079915;28;20519;-65
2023/01/08 08:42:47;;;;;;;6.72;1.45;;;7.40;99.90;;;;;;5081014;28;20032;-66
2023/01/08 08:45:12;;;;;;;7.55;1.27;;;7.40;99.90;;;;;;5057724;28;20039;-66
2023/01/08 08:47:38;;;;;;;7.55;1.88;;;7.40;99.90;;;;;;5078500;28;20109;-67
2023/01/08 08:50:05;;;;;;;6.30;1.70;;;7.40;99.90;;;;;;5061275;28;20601;-66
2023/01/08 08:52:32;;;;;;;7.53;1.48;;;7.50;99.90;;;;;;5080090;28;20123;-66
2023/01/08 08:54:59;;;;;;;7.32;1.38;;;7.50;99.90;;;;;;5062622;28;20048;-66
2023/01/08 08:57:26;;;;;;;5.05;1.38;;;7.50;99.90;;;;;;5081551;28;20036;-65
2023/01/08 08:59:52;;;;;;;7.82;1.48;;;7.50;99.90;;;;;;5077402;28;20072;-66
2023/01/08 09:02:18;;;;;;;5.43;1.23;;;7.50;99.90;;;;;;5054584;28;20078;-66
2023/01/08 09:04:44;;;;;;;7.10;1.38;;;7.50;99.90;;;;;;5061518;28;20051;-66
2023/01/08 09:07:09;;;;;;;4.10;1.17;;;7.50;99.90;;;;;;5080364;28;20044;-66
2023/01/08 09:09:35;;;;;;;5.15;1.10;;;7.50;99.90;;;;;;5065343;28;20043;-65
2023/01/08 09:12:01;;;;;;;7.55;1.75;;;7.50;99.90;;;;;;5079858;28;20040;-67
2023/01/08 09:14:27;;;;;;;7.85;2.13;;;7.50;99.90;;;;;;5064350;28;20038;-66
2023/01/08 09:16:52;;;;;;;8.20;1.40;;;7.50;99.90;;;;;;5083003;28;20489;-65
2023/01/08 09:19:18;;;;;;;7.45;1.50;;;7.60;99.90;;;;;;5081801;28;20047;-65
2023/01/08 09:21:44;;;;;;;5.03;1.23;;;7.60;99.90;;;;;;5079803;28;20044;-65
2023/01/08 09:24:10;;;;;;;4.45;0.95;;;7.70;99.90;;;;;;5080786;28;20036;-66
2023/01/08 09:26:35;;;;;;;8.07;0.90;;;7.70;99.90;;;;;;5088018;28;20127;-66
2023/01/08 09:29:01;;;;;;;4.97;1.02;;;7.70;99.90;;;;;;5085786;28;20043;-65
2023/01/08 09:31:27;;;;;;;5.65;0.95;;;7.70;99.90;;;;;;5079524;28;20067;-66
2023/01/08 09:33:52;;;;;;;4.38;1.17;;;7.80;99.90;;;;;;5063420;28;20036;-65
2023/01/08 09:36:18;;;;;;;6.45;1.10;;;7.80;99.90;;;;;;5063663;28;20040;-66
2023/01/08 09:38:45;;;;;;;8.57;1.55;;;7.80;99.90;;;;;;5081581;28;20051;-65
2023/01/08 09:41:32;;;;;;;5.18;1.35;;;7.90;99.90;;;;;;5081362;28;20042;-66
2023/01/08 09:44:01;;;;;;;8.35;1.20;;;7.90;99.90;;;;;;5084523;28;20364;-66
2023/01/08 09:46:27;;;;;;;7.07;1.55;;;7.90;99.90;;;;;;5083946;28;20043;-66
2023/01/08 09:49:05;;;;;;;9.30;1.30;;;7.90;99.90;;;;;;5079648;28;20507;-66
2023/01/08 09:51:34;;;;;;;29.80;16.30;;;8.00;99.90;;;;;;5068125;28;20130;-66
2023/01/08 09:54:01;;;;;;;12.60;1.83;;;8.00;99.90;;;;;;5081463;28;20078;-66
2023/01/08 09:56:28;;;;;;;8.65;1.35;;;8.00;99.90;;;;;;5080998;28;20518;-65
2023/01/08 09:58:57;;;;;;;6.30;0.93;;;8.00;99.90;;;;;;5068732;28;20044;-66
2023/01/08 10:01:34;;;;;;;6.88;1.00;;;8.00;99.90;;;;;;5082208;28;20409;-65
2023/01/08 10:04:06;;;;;;;10.38;1.48;;;8.10;99.90;;;;;;5082327;28;20036;-66
2023/01/08 10:06:32;;;;;;;9.20;1.30;;;8.10;99.90;;;;;;5063500;28;20127;-66
2023/01/08 10:08:58;;;;;;;7.82;1.30;;;8.20;99.90;;;;;;5080180;28;20186;-65
2023/01/08 10:11:27;;;;;;;8.20;1.35;;;8.20;99.90;;;;;;5064200;28;20036;-66
2023/01/08 10:13:56;;;;;;;9.80;1.58;;;8.20;99.90;;;;;;5085963;28;20086;-66
2023/01/08 10:16:32;;;;;;;11.50;1.95;;;8.30;99.90;;;;;;5064127;28;20050;-66
2023/01/08 10:18:58;;;;;;;14.38;2.05;;;8.30;99.90;;;;;;5081376;28;20041;-65
2023/01/08 10:21:44;;;;;;;8.13;1.30;;;8.30;99.90;;;;;;5082494;28;20071;-65
2023/01/08 10:24:10;;;;;;;6.32;1.33;;;8.30;99.90;;;;;;5063535;28;20070;-66
2023/01/08 10:26:37;;;;;;;9.23;1.42;;;8.30;99.90;;;;;;5078259;28;20086;-66
2023/01/08 10:29:17;;;;;;;11.52;1.70;;;8.30;99.90;;;;;;5056278;28;20094;-65
2023/01/08 10:31:52;;;;;;;9.32;1.38;;;8.30;99.90;;;;;;5063575;28;20035;-65
2023/01/08 10:34:38;;;;;;;7.50;1.15;;;8.30;99.90;;;;;;5062630;28;20078;-66
2023/01/08 10:37:22;;;;;;;7.13;1.35;;;8.40;99.90;;;;;;5069704;28;20044;-66
2023/01/08 10:39:48;;;;;;;7.72;1.35;;;8.40;99.90;;;;;;5078232;28;20115;-66
2023/01/08 10:42:16;;;;;;;8.65;1.98;;;8.40;99.90;;;;;;5082800;28;20075;-66
2023/01/08 10:44:54;;;;;;;8.85;1.65;;;8.40;99.90;;;;;;5061043;28;20036;-65
2023/01/08 10:47:20;;;;;;;9.05;1.88;;;8.40;99.90;;;;;;5066635;28;20459;-66
2023/01/08 10:49:46;;;;;;;10.20;2.15;;;8.40;99.90;;;;;;5077979;28;20044;-65
2023/01/08 10:52:31;;;;;;;11.07;1.35;;;8.50;99.90;;;;;;5084723;28;20469;-65
2023/01/08 10:55:10;;;;;;;11.80;1.80;;;8.50;99.90;;;;;;5064081;28;20048;-65
2023/01/08 10:57:38;;;;;;;10.15;3.15;;;8.50;99.90;;;;;;5075087;28;20744;-66
2023/01/08 11:00:05;;;;;;;12.05;2.05;;;8.50;99.90;;;;;;5079092;28;20111;-66
2023/01/08 11:02:38;;;;;;;9.30;1.45;;;8.60;99.90;;;;;;5079231;28;20033;-66
2023/01/08 11:05:06;;;;;;;9.00;1.42;;;8.50;99.90;;;;;;5079240;28;20569;-65
2023/01/08 11:07:36;;;;;;;8.68;1.67;;;8.60;99.90;;;;;;5065142;28;20054;-67
2023/01/08 11:10:03;;;;;;;10.80;1.80;;;8.60;99.90;;;;;;5052652;28;20055;-66
2023/01/08 11:12:38;;;;;;;7.28;1.60;;;8.60;99.90;;;;;;5074421;28;20040;-66
2023/01/08 11:15:24;;;;;;;13.32;1.45;;;8.60;99.90;;;;;;5052710;28;20044;-66
2023/01/08 11:17:49;;;;;;;9.10;1.45;;;8.70;99.90;;;;;;5057905;28;20114;-66
2023/01/08 11:20:32;;;;;;;9.45;1.50;;;8.70;99.90;;;;;;5062114;28;20483;-66
2023/01/08 11:23:12;;;;;;;12.93;2.50;;;8.70;99.90;;;;;;5075739;28;20041;-65
2023/01/08 11:25:39;;;;;;;8.63;1.25;;;8.80;99.90;;;;;;5074478;28;20127;-66
2023/01/08 11:28:10;;;;;;;8.50;1.70;;;8.80;99.90;;;;;;5058834;28;20540;-66
2023/01/08 11:30:38;;;;;;;8.82;1.00;;;8.80;99.90;;;;;;5081379;28;20047;-65
2023/01/08 11:33:08;;;;;;;10.48;1.75;;;8.90;99.90;;;;;;5077545;28;20036;-66
2023/01/08 11:35:48;;;;;;;10.88;1.80;;;9.00;99.90;;;;;;5081686;28;20047;-66
2023/01/08 11:38:15;;;;;;;16.02;2.30;;;9.10;99.90;;;;;;5060466;28;20099;-66
2023/01/08 11:40:40;;;;;;;8.65;2.72;;;9.20;99.90;;;;;;5061912;28;20189;-65
2023/01/08 11:43:06;;;;;;;8.00;1.30;;;9.20;99.90;;;;;;5072705;28;20040;-65
2023/01/08 11:45:50;;;;;;;8.18;1.83;;;9.20;99.90;;;;;;5083588;28;20036;-67
2023/01/08 11:48:34;;;;;;;7.57;1.30;;;9.20;99.90;;;;;;5081452;28;20089;-66
2023/01/08 11:51:10;;;;;;;16.95;1.85;;;9.30;99.90;;;;;;5069068;28;20036;-66
2023/01/08 11:53:45;;;;;;;7.63;1.77;;;9.30;99.90;;;;;;5062309;28;20063;-67
2023/01/08 11:56:19;;;;;;;;;;;9.30;99.90;;;;;;5087988;28;20071;-66
2023/01/08 11:58:54;;;;;;;7.53;2.08;;;9.40;99.90;;;;;;5084436;28;20383;-66
2023/01/08 12:01:31;;;;;;;;;;;9.40;99.90;;;;;;5081475;28;20039;-66
2023/01/08 12:04:28;;;;;;;11.55;1.73;;;9.40;99.90;;;;;;5080398;28;19995;-65
2023/01/08 12:07:25;;;;;;;9.40;1.55;;;9.50;99.90;;;;;;5082226;28;20039;-65
2023/01/08 12:10:02;;;;;;;10.60;2.00;;;9.50;99.90;;;;;;5076721;28;20071;-66
2023/01/08 12:12:37;;;;;;;13.55;2.28;;;9.50;99.90;;;;;;5082580;28;20571;-66
2023/01/08 12:15:19;;;;;;;;;;;9.50;99.90;;;;;;5081857;28;20028;-66
2023/01/08 12:18:03;;;;;;;11.43;1.50;;;9.40;99.90;;;;;;5080568;28;19965;-66
2023/01/08 12:20:34;;;;;;;7.53;1.37;;;9.50;99.90;;;;;;5062409;28;20055;-66
2023/01/08 12:23:36;;;;;;;8.70;1.70;;;9.60;99.90;;;;;;5079558;28;20274;-67
2023/01/08 12:26:18;;;;;;;8.43;1.30;;;9.70;99.90;;;;;;5086149;28;20116;-66
2023/01/08 12:28:53;;;;;;;10.65;1.85;;;9.70;99.90;;;;;;5051906;28;20036;-66
2023/01/08 12:31:27;;;;;;;;;;;9.70;99.90;;;;;;5081476;28;20047;-66
2023/01/08 12:34:36;;;;;;;6.70;1.23;;;9.70;99.90;;;;;;5066086;28;19916;-66
2023/01/08 12:37:32;;;;;;;13.70;1.92;;;9.70;99.90;;;;;;5062632;28;20040;-66
2023/01/08 12:40:12;;;;;;;;;;;9.70;99.90;;;;;;5050455;28;20048;-66
2023/01/08 12:42:44;;;;;;;9.95;1.92;;;9.70;99.90;;;;;;5086456;28;20011;-66
2023/01/08 12:45:46;;;;;;;7.03;1.63;;;9.70;99.90;;;;;;5082970;28;20024;-65
2023/01/08 12:48:26;;;;;;;7.15;1.73;;;9.60;99.90;;;;;;5084296;28;20671;-65
2023/01/08 12:51:12;;;;;;;11.65;1.55;;;9.60;99.90;;;;;;5059501;28;20435;-65
2023/01/08 12:53:46;;;;;;;10.18;1.70;;;9.60;99.90;;;;;;5065615;28;20040;-66
2023/01/08 12:56:14;;;;;;;8.25;1.60;;;9.50;99.90;;;;;;5082638;28;20496;-66
2023/01/08 12:59:12;;;;;;;7.82;1.42;;;9.40;99.90;;;;;;5079243;28;20464;-66
2023/01/08 13:01:42;;;;;;;9.75;1.92;;;9.40;99.90;;;;;;5080794;28;20044;-66
2023/01/08 13:04:09;;;;;;;10.80;1.83;;;9.50;99.90;;;;;;5082385;28;20051;-66
2023/01/08 13:06:35;;;;;;;10.45;2.10;;;9.40;99.90;;;;;;5083419;28;20150;-65
2023/01/08 13:09:01;;;;;;;9.07;1.10;;;9.40;99.90;;;;;;5081039;28;20049;-66
2023/01/08 13:11:33;;;;;;;11.10;1.30;;;9.40;99.90;;;;;;5078883;28;20112;-66